createdAt,value
2017-09-24T00:00:27.223Z,99510.94
2017-09-24T00:02:56.753Z,99512.11
2017-09-24T00:05:29.844Z,99512.08
2017-09-24T00:07:59.590Z,99508.02
2017-09-24T00:10:28.775Z,99503.23
2017-09-24T00:12:57.953Z,99502.91
2017-09-24T00:15:28.557Z,99504.59
2017-09-24T00:17:57.894Z,99500.06
2017-09-24T00:20:29.218Z,99498.88
2017-09-24T00:22:58.440Z,99505.92
2017-09-24T00:25:28.679Z,99501.57
2017-09-24T00:27:58.233Z,99502.80
2017-09-24T00:30:28.550Z,99502.75
2017-09-24T00:32:57.787Z,99500.69
2017-09-24T00:35:28.913Z,99497.23
2017-09-24T00:37:58.368Z,99494.28
2017-09-24T00:40:30.562Z,99501.93
2017-09-24T00:42:59.990Z,99505.06
2017-09-24T00:45:29.799Z,99501.19
2017-09-24T00:47:59.335Z,99495.07
2017-09-24T00:50:30.730Z,99496.78
2017-09-24T00:53:00.298Z,99497.00
2017-09-24T00:55:30.398Z,99493.22
2017-09-24T00:58:00.142Z,99494.23
2017-09-24T01:00:30.317Z,99494.23
2017-09-24T01:02:59.460Z,99496.85
2017-09-24T01:05:30.343Z,99498.12
2017-09-24T01:07:59.687Z,99500.03
2017-09-24T01:10:30.263Z,99496.91
2017-09-24T01:12:59.719Z,99500.84
2017-09-24T01:15:30.830Z,99495.05
2017-09-24T01:18:00.028Z,99496.86
2017-09-24T01:20:31.134Z,99495.02
2017-09-24T01:23:00.634Z,99499.06
2017-09-24T01:25:31.446Z,99490.91
2017-09-24T01:28:01.274Z,99495.11
2017-09-24T01:30:33.026Z,99492.78
2017-09-24T01:33:02.318Z,99490.64
2017-09-24T01:35:35.779Z,99497.89
2017-09-24T01:38:05.275Z,99491.34
2017-09-24T01:40:34.590Z,99487.19
2017-09-24T01:43:04.074Z,99479.94
2017-09-24T01:45:34.857Z,99480.37
2017-09-24T01:48:04.075Z,99480.72
2017-09-24T01:50:34.211Z,99478.53
2017-09-24T01:53:03.682Z,99470.79
2017-09-24T01:55:33.276Z,99470.94
2017-09-24T01:58:03.193Z,99464.73
2017-09-24T02:00:36.014Z,99468.44
2017-09-24T02:03:05.508Z,99466.70
2017-09-24T02:05:35.735Z,99465.86
2017-09-24T02:08:05.370Z,99463.88
2017-09-24T02:10:35.277Z,99467.17
2017-09-24T02:13:04.962Z,99461.31
2017-09-24T02:15:34.531Z,99466.52
2017-09-24T02:18:03.712Z,99461.17
2017-09-24T02:20:36.310Z,99459.81
2017-09-24T02:23:05.478Z,99457.14
2017-09-24T02:25:34.830Z,99463.18
2017-09-24T02:28:04.681Z,99460.48
2017-09-24T02:30:34.010Z,99452.33
2017-09-24T02:33:03.507Z,99462.87
2017-09-24T02:35:34.690Z,99459.55
2017-09-24T02:38:03.974Z,99463.14
2017-09-24T02:40:34.415Z,99457.11
2017-09-24T02:43:04.215Z,99462.36
2017-09-24T02:45:34.776Z,99460.36
2017-09-24T02:48:04.274Z,99449.94
2017-09-24T02:50:35.051Z,99449.80
2017-09-24T02:53:04.240Z,99445.75
2017-09-24T02:55:35.030Z,99449.33
2017-09-24T02:58:04.603Z,99443.06
2017-09-24T03:00:36.246Z,99451.70
2017-09-24T03:03:05.575Z,99457.14
2017-09-24T03:05:36.265Z,99458.52
2017-09-24T03:08:05.684Z,99455.92
2017-09-24T03:10:36.274Z,99459.32
2017-09-24T03:13:05.731Z,99456.92
2017-09-24T03:15:36.626Z,99459.90
2017-09-24T03:18:05.887Z,99457.74
2017-09-24T03:20:36.522Z,99454.59
2017-09-24T03:23:05.747Z,99456.61
2017-09-24T03:25:35.912Z,99457.59
2017-09-24T03:28:05.407Z,99456.05
2017-09-24T03:30:37.954Z,99460.89
2017-09-24T03:33:07.461Z,99460.67
2017-09-24T03:35:36.819Z,99460.48
2017-09-24T03:38:06.481Z,99463.20
2017-09-24T03:40:37.398Z,99457.96
2017-09-24T03:43:06.924Z,99461.45
2017-09-24T03:45:37.589Z,99459.43
2017-09-24T03:48:07.318Z,99459.05
2017-09-24T03:50:37.230Z,99457.05
2017-09-24T03:53:06.563Z,99462.25
2017-09-24T03:55:37.827Z,99458.44
2017-09-24T03:58:07.107Z,99458.90
2017-09-24T04:00:37.738Z,99463.28
2017-09-24T04:03:07.834Z,99462.55
2017-09-24T04:05:38.190Z,99466.64
2017-09-24T04:08:07.508Z,99461.48
2017-09-24T04:10:38.548Z,99464.70
2017-09-24T04:13:08.348Z,99459.16
2017-09-24T04:15:38.688Z,99460.70
2017-09-24T04:18:08.203Z,99459.44
2017-09-24T04:20:39.342Z,99456.09
2017-09-24T04:23:09.031Z,99448.78
2017-09-24T04:25:39.111Z,99447.83
2017-09-24T04:28:08.566Z,99449.69
2017-09-24T04:30:39.822Z,99455.16
2017-09-24T04:33:09.275Z,99456.77
2017-09-24T04:35:40.230Z,99463.27
2017-09-24T04:38:10.052Z,99469.47
2017-09-24T04:40:40.587Z,99468.37
2017-09-24T04:43:09.746Z,99467.80
2017-09-24T04:45:42.573Z,99469.27
2017-09-24T04:48:11.998Z,99467.07
2017-09-24T04:50:41.364Z,99465.72
2017-09-24T04:53:11.087Z,99468.17
2017-09-24T04:55:40.714Z,99471.14
2017-09-24T04:58:10.198Z,99473.94
2017-09-24T05:00:40.842Z,99477.85
2017-09-24T05:03:10.522Z,99476.95
2017-09-24T05:05:40.962Z,99485.30
2017-09-24T05:08:10.464Z,99493.75
2017-09-24T05:10:41.923Z,99490.23
2017-09-24T05:13:11.234Z,99488.68
2017-09-24T05:15:42.666Z,99490.84
2017-09-24T05:18:12.538Z,99485.44
2017-09-24T05:20:41.833Z,99480.09
2017-09-24T05:23:11.261Z,99487.31
2017-09-24T05:25:41.661Z,99479.38
2017-09-24T05:28:10.817Z,99483.08
2017-09-24T05:30:41.466Z,99481.96
2017-09-24T05:33:10.982Z,99487.08
2017-09-24T05:35:42.082Z,99481.20
2017-09-24T05:38:11.524Z,99486.59
2017-09-24T05:40:41.702Z,99488.45
2017-09-24T05:43:11.242Z,99495.20
2017-09-24T05:45:42.178Z,99490.72
2017-09-24T05:48:11.328Z,99494.88
2017-09-24T05:50:42.357Z,99498.56
2017-09-24T05:53:11.702Z,99495.02
2017-09-24T05:55:42.368Z,99497.24
2017-09-24T05:58:11.971Z,99498.89
2017-09-24T06:00:42.581Z,99500.42
2017-09-24T06:03:12.282Z,99499.70
2017-09-24T06:05:43.742Z,99496.66
2017-09-24T06:08:13.731Z,99498.91
2017-09-24T06:10:43.434Z,99499.87
2017-09-24T06:13:13.158Z,99501.28
2017-09-24T06:15:44.016Z,99510.64
2017-09-24T06:18:13.174Z,99515.17
2017-09-24T06:20:43.694Z,99507.14
2017-09-24T06:23:13.313Z,99512.56
2017-09-24T06:25:44.103Z,99515.21
2017-09-24T06:28:13.822Z,99522.78
2017-09-24T06:30:44.694Z,99521.36
2017-09-24T06:33:13.882Z,99521.55
2017-09-24T06:35:45.702Z,99519.50
2017-09-24T06:38:15.100Z,99520.44
2017-09-24T06:40:44.554Z,99524.83
2017-09-24T06:43:14.519Z,99526.95
2017-09-24T06:45:45.132Z,99521.88
2017-09-24T06:48:14.427Z,99528.42
2017-09-24T06:50:45.437Z,99533.09
2017-09-24T06:53:14.860Z,99528.56
2017-09-24T06:55:45.222Z,99523.34
2017-09-24T06:58:15.315Z,99518.13
2017-09-24T07:00:45.508Z,99520.34
2017-09-24T07:03:15.079Z,99518.06
2017-09-24T07:05:45.967Z,99521.89
2017-09-24T07:08:15.584Z,99526.83
2017-09-24T07:10:46.163Z,99532.14
2017-09-24T07:13:15.977Z,99527.66
2017-09-24T07:15:45.937Z,99538.27
2017-09-24T07:18:15.604Z,99543.59
2017-09-24T07:20:46.556Z,99542.88
2017-09-24T07:23:15.864Z,99542.44
2017-09-24T07:25:46.670Z,99543.87
2017-09-24T07:28:16.590Z,99543.07
2017-09-24T07:30:46.755Z,99545.55
2017-09-24T07:33:16.467Z,99548.66
2017-09-24T07:35:46.910Z,99548.48
2017-09-24T07:38:16.706Z,99546.63
2017-09-24T07:40:47.647Z,99538.27
2017-09-24T07:43:17.476Z,99542.05
2017-09-24T07:45:47.579Z,99539.33
2017-09-24T07:48:16.827Z,99537.45
2017-09-24T07:50:47.702Z,99541.50
2017-09-24T07:53:17.400Z,99539.31
2017-09-24T07:55:47.630Z,99541.29
2017-09-24T07:58:17.191Z,99539.58
2017-09-24T08:00:47.870Z,99541.53
2017-09-24T08:03:17.238Z,99545.63
2017-09-24T08:05:48.638Z,99545.70
2017-09-24T08:08:18.465Z,99549.03
2017-09-24T08:10:48.866Z,99548.91
2017-09-24T08:13:18.730Z,99551.98
2017-09-24T08:15:49.074Z,99552.36
2017-09-24T08:18:18.680Z,99543.61
2017-09-24T08:20:48.462Z,99538.54
2017-09-24T08:23:18.178Z,99540.68
2017-09-24T08:25:48.791Z,99538.39
2017-09-24T08:28:18.354Z,99544.39
2017-09-24T08:30:49.555Z,99538.41
2017-09-24T08:33:18.938Z,99537.59
2017-09-24T08:35:49.403Z,99536.09
2017-09-24T08:38:19.024Z,99537.64
2017-09-24T08:40:49.356Z,99534.64
2017-09-24T08:43:18.978Z,99536.59
2017-09-24T08:45:51.074Z,99539.90
2017-09-24T08:48:20.611Z,99541.02
2017-09-24T08:50:51.262Z,99539.37
2017-09-24T08:53:20.596Z,99540.46
2017-09-24T08:55:49.917Z,99541.02
2017-09-24T08:58:19.965Z,99543.78
2017-09-24T09:00:50.522Z,99541.67
2017-09-24T09:03:19.945Z,99541.22
2017-09-24T09:05:50.407Z,99543.78
2017-09-24T09:08:19.774Z,99540.69
2017-09-24T09:10:51.070Z,99542.81
2017-09-24T09:13:20.677Z,99547.54
2017-09-24T09:15:51.446Z,99549.90
2017-09-24T09:18:20.734Z,99555.42
2017-09-24T09:20:51.319Z,99557.15
2017-09-24T09:23:20.623Z,99555.02
2017-09-24T09:25:51.580Z,99554.09
2017-09-24T09:28:21.403Z,99556.84
2017-09-24T09:30:51.859Z,99556.96
2017-09-24T09:33:23.011Z,99550.34
2017-09-24T09:35:52.727Z,99547.38
2017-09-24T09:38:22.395Z,99552.52
2017-09-24T09:40:52.391Z,99552.63
2017-09-24T09:43:31.821Z,99557.61
2017-09-24T09:46:01.672Z,99551.02
2017-09-24T09:48:31.450Z,99548.26
2017-09-24T09:51:00.619Z,99550.11
2017-09-24T09:53:30.099Z,99548.28
2017-09-24T09:56:00.245Z,99545.53
2017-09-24T09:58:29.749Z,99548.07
2017-09-24T10:00:59.578Z,99546.84
2017-09-24T10:03:28.999Z,99544.28
2017-09-24T10:05:58.177Z,99548.10
2017-09-24T10:10:40.787Z,99541.13
2017-09-24T10:13:10.082Z,99547.92
2017-09-24T10:15:39.726Z,99549.11
2017-09-24T10:18:09.331Z,99545.93
2017-09-24T10:20:38.836Z,99541.79
2017-09-24T10:23:08.344Z,99540.06
2017-09-24T10:25:38.018Z,99538.15
2017-09-24T10:28:15.914Z,99536.04
2017-09-24T10:30:57.694Z,99544.63
2017-09-24T10:33:27.249Z,99545.66
2017-09-24T10:35:56.679Z,99543.20
2017-09-24T10:38:25.953Z,99535.17
2017-09-24T10:40:55.519Z,99532.32
2017-09-24T10:43:24.799Z,99538.34
2017-09-24T10:45:55.286Z,99535.52
2017-09-24T10:48:25.037Z,99537.23
2017-09-24T10:50:55.938Z,99538.13
2017-09-24T10:53:25.148Z,99535.16
2017-09-24T10:55:55.159Z,99538.56
2017-09-24T10:58:24.351Z,99537.55
2017-09-24T11:00:54.875Z,99539.49
2017-09-24T11:03:24.376Z,99539.16
2017-09-24T11:05:55.320Z,99531.97
2017-09-24T11:08:24.502Z,99532.09
2017-09-24T11:10:56.156Z,99533.89
2017-09-24T11:13:25.320Z,99529.66
2017-09-24T11:15:55.828Z,99535.96
2017-09-24T11:18:25.321Z,99534.86
2017-09-24T11:20:56.664Z,99534.25
2017-09-24T11:23:25.871Z,99532.72
2017-09-24T11:25:57.252Z,99531.50
2017-09-24T11:28:26.629Z,99540.80
2017-09-24T11:30:56.734Z,99538.41
2017-09-24T11:33:26.359Z,99529.81
2017-09-24T11:35:57.015Z,99536.84
2017-09-24T11:38:26.237Z,99534.50
2017-09-24T11:40:56.986Z,99532.12
2017-09-24T11:43:26.111Z,99526.52
2017-09-24T11:45:57.755Z,99535.23
2017-09-24T11:48:27.233Z,99532.98
2017-09-24T11:50:57.287Z,99535.58
2017-09-24T11:53:26.552Z,99530.00
2017-09-24T11:55:59.401Z,99527.78
2017-09-24T11:58:29.319Z,99532.47
2017-09-24T12:00:59.487Z,99528.80
2017-09-24T12:03:29.149Z,99528.66
2017-09-24T12:06:01.450Z,99526.03
2017-09-24T12:08:34.027Z,99529.23
2017-09-24T12:11:03.652Z,99532.81
2017-09-24T12:13:32.857Z,99531.33
2017-09-24T12:16:02.130Z,99531.78
2017-09-24T12:18:31.666Z,99526.02
2017-09-24T12:21:00.904Z,99529.61
2017-09-24T12:23:30.067Z,99535.86
2017-09-24T12:26:01.299Z,99528.35
2017-09-24T12:28:30.575Z,99531.75
2017-09-24T12:30:59.792Z,99529.05
2017-09-24T12:33:29.316Z,99529.97
2017-09-24T12:35:59.591Z,99534.45
2017-09-24T12:38:28.850Z,99534.98
2017-09-24T12:40:59.695Z,99535.94
2017-09-24T12:43:29.013Z,99533.50
2017-09-24T12:45:59.959Z,99532.02
2017-09-24T12:48:30.043Z,99535.34
2017-09-24T12:51:00.239Z,99532.02
2017-09-24T12:53:29.502Z,99531.07
2017-09-24T12:56:00.474Z,99525.70
2017-09-24T12:58:29.699Z,99528.92
2017-09-24T13:01:02.617Z,99527.18
2017-09-24T13:03:31.864Z,99526.98
2017-09-24T13:06:01.034Z,99522.59
2017-09-24T13:08:30.636Z,99526.47
2017-09-24T13:11:01.667Z,99516.45
2017-09-24T13:13:30.916Z,99525.42
2017-09-24T13:16:01.668Z,99515.97
2017-09-24T13:18:30.963Z,99510.23
2017-09-24T13:21:01.587Z,99512.06
2017-09-24T13:23:31.704Z,99513.24
2017-09-24T13:26:01.693Z,99512.50
2017-09-24T13:28:34.328Z,99512.25
2017-09-24T13:31:03.822Z,99513.69
2017-09-24T13:33:33.673Z,99516.38
2017-09-24T13:36:02.840Z,99512.22
2017-09-24T13:38:32.680Z,99512.14
2017-09-24T13:41:02.374Z,99516.25
2017-09-24T13:43:31.605Z,99518.28
2017-09-24T13:46:02.808Z,99524.31
2017-09-24T13:48:32.082Z,99524.75
2017-09-24T13:51:01.302Z,99527.40
2017-09-24T13:53:30.882Z,99527.63
2017-09-24T13:56:02.104Z,99519.45
2017-09-24T13:58:31.651Z,99519.30
2017-09-24T14:01:04.877Z,99518.13
2017-09-24T14:03:34.146Z,99524.55
2017-09-24T14:06:03.710Z,99523.28
2017-09-24T14:08:33.251Z,99524.86
2017-09-24T14:11:04.186Z,99527.31
2017-09-24T14:13:33.500Z,99527.66
2017-09-24T14:16:06.104Z,99521.42
2017-09-24T14:18:35.430Z,99520.58
2017-09-24T14:21:04.844Z,99528.05
2017-09-24T14:23:34.414Z,99529.53
2017-09-24T14:26:05.152Z,99531.89
2017-09-24T14:28:34.478Z,99529.15
2017-09-24T14:31:04.914Z,99532.25
2017-09-24T14:33:34.262Z,99533.80
2017-09-24T14:36:06.504Z,99527.65
2017-09-24T14:38:36.021Z,99529.20
2017-09-24T14:41:05.806Z,99527.08
2017-09-24T14:43:35.143Z,99524.91
2017-09-24T14:46:07.853Z,99523.77
2017-09-24T14:48:37.093Z,99524.84
2017-09-24T14:51:06.647Z,99526.91
2017-09-24T14:53:36.178Z,99520.61
2017-09-24T14:56:06.054Z,99524.69
2017-09-24T14:58:35.423Z,99516.59
2017-09-24T15:01:07.004Z,99519.81
2017-09-24T15:03:36.359Z,99520.72
2017-09-24T15:06:07.143Z,99518.39
2017-09-24T15:08:37.563Z,99513.37
2017-09-24T15:11:07.342Z,99516.66
2017-09-24T15:13:36.858Z,99514.20
2017-09-24T15:16:07.423Z,99524.29
2017-09-24T15:18:37.050Z,99517.66
2017-09-24T15:21:07.231Z,99522.75
2017-09-24T15:23:36.967Z,99521.64
2017-09-24T15:26:07.661Z,99519.55
2017-09-24T15:28:36.911Z,99519.06
2017-09-24T15:31:08.307Z,99521.11
2017-09-24T15:33:37.682Z,99520.25
2017-09-24T15:36:08.170Z,99517.38
2017-09-24T15:38:37.751Z,99523.23
2017-09-24T15:41:07.975Z,99526.41
2017-09-24T15:43:37.302Z,99529.86
2017-09-24T15:46:08.398Z,99524.70
2017-09-24T15:48:37.904Z,99526.11
2017-09-24T15:51:09.278Z,99526.03
2017-09-24T15:53:38.768Z,99537.95
2017-09-24T15:56:08.774Z,99539.45
2017-09-24T15:58:39.126Z,99532.97
2017-09-24T16:01:09.391Z,99531.64
2017-09-24T16:03:39.027Z,99533.63
2017-09-24T16:06:09.563Z,99534.32
2017-09-24T16:08:38.952Z,99535.39
2017-09-24T16:11:11.808Z,99542.70
2017-09-24T16:13:45.483Z,99545.38
2017-09-24T16:16:14.763Z,99545.63
2017-09-24T16:18:44.371Z,99548.56
2017-09-24T16:21:13.602Z,99545.55
2017-09-24T16:23:42.783Z,99549.15
2017-09-24T16:26:15.994Z,99552.09
2017-09-24T16:28:47.681Z,99551.94
2017-09-24T16:31:16.998Z,99549.44
2017-09-24T16:33:46.613Z,99550.59
2017-09-24T16:36:16.317Z,99554.19
2017-09-24T16:38:45.790Z,99552.50
2017-09-24T16:41:15.325Z,99561.94
2017-09-24T16:43:44.706Z,99563.78
2017-09-24T16:46:13.986Z,99562.09
2017-09-24T16:48:44.030Z,99561.54
2017-09-24T16:51:13.260Z,99566.34
2017-09-24T16:53:42.658Z,99570.08
2017-09-24T16:56:12.086Z,99570.86
2017-09-24T16:58:41.383Z,99575.23
2017-09-24T17:01:13.142Z,99573.30
2017-09-24T17:03:42.982Z,99577.91
2017-09-24T17:06:12.695Z,99577.41
2017-09-24T17:08:42.399Z,99582.34
2017-09-24T17:11:14.882Z,99574.02
2017-09-24T17:13:44.246Z,99579.88
2017-09-24T17:16:13.531Z,99582.22
2017-09-24T17:18:43.237Z,99576.70
2017-09-24T17:21:12.919Z,99575.55
2017-09-24T17:23:42.241Z,99576.41
2017-09-24T17:26:13.785Z,99582.06
2017-09-24T17:28:42.962Z,99581.69
2017-09-24T17:31:13.670Z,99580.73
2017-09-24T17:33:43.198Z,99581.13
2017-09-24T17:36:13.785Z,99582.61
2017-09-24T17:38:43.151Z,99585.58
2017-09-24T17:41:20.223Z,99580.92
2017-09-24T17:43:49.810Z,99584.30
2017-09-24T17:46:21.678Z,99588.52
2017-09-24T17:48:51.280Z,99581.77
2017-09-24T17:51:21.110Z,99587.14
2017-09-24T17:53:50.378Z,99582.27
2017-09-24T17:56:20.064Z,99589.73
2017-09-24T17:58:49.666Z,99585.14
2017-09-24T18:01:19.031Z,99593.05
2017-09-24T18:03:48.738Z,99591.08
2017-09-24T18:06:18.098Z,99591.22
2017-09-24T18:08:47.331Z,99590.44
2017-09-24T18:11:16.896Z,99594.81
2017-09-24T18:13:46.170Z,99596.41
2017-09-24T18:16:16.255Z,99597.83
2017-09-24T18:18:46.215Z,99595.24
2017-09-24T18:21:16.309Z,99593.82
2017-09-24T18:23:45.584Z,99594.31
2017-09-24T18:26:17.108Z,99593.56
2017-09-24T18:28:46.290Z,99593.12
2017-09-24T18:31:17.114Z,99584.55
2017-09-24T18:33:46.586Z,99591.41
2017-09-24T18:36:17.373Z,99597.64
2017-09-24T18:38:46.678Z,99589.19
2017-09-24T18:41:17.434Z,99594.62
2017-09-24T18:43:46.655Z,99590.16
2017-09-24T18:46:17.367Z,99589.28
2017-09-24T18:48:46.901Z,99594.52
2017-09-24T18:51:17.660Z,99594.02
2017-09-24T18:53:47.113Z,99588.89
2017-09-24T18:56:18.513Z,99593.63
2017-09-24T18:58:47.714Z,99594.16
2017-09-24T19:01:18.646Z,99584.05
2017-09-24T19:03:48.697Z,99584.45
2017-09-24T19:06:18.631Z,99581.70
2017-09-24T19:08:48.003Z,99579.52
2017-09-24T19:11:19.081Z,99583.75
2017-09-24T19:13:48.382Z,99590.13
2017-09-24T19:16:18.996Z,99586.07
2017-09-24T19:18:48.686Z,99590.29
2017-09-24T19:21:19.936Z,99589.63
2017-09-24T19:23:49.750Z,99593.92
2017-09-24T19:26:19.550Z,99590.64
2017-09-24T19:28:48.871Z,99592.68
2017-09-24T19:31:18.554Z,99596.89
2017-09-24T19:33:48.082Z,99593.21
2017-09-24T19:36:18.682Z,99596.44
2017-09-24T19:38:48.400Z,99594.23
2017-09-24T19:41:19.297Z,99603.34
2017-09-24T19:43:48.726Z,99597.16
2017-09-24T19:46:19.866Z,99596.13
2017-09-24T19:48:49.465Z,99600.84
2017-09-24T19:51:22.587Z,99600.56
2017-09-24T19:53:52.135Z,99600.59
2017-09-24T19:56:21.406Z,99597.79
2017-09-24T19:58:51.762Z,99606.58
2017-09-24T20:01:22.527Z,99612.17
2017-09-24T20:03:51.837Z,99620.16
2017-09-24T20:06:23.090Z,99617.77
2017-09-24T20:08:52.847Z,99620.19
2017-09-24T20:11:22.123Z,99613.84
2017-09-24T20:13:51.835Z,99615.59
2017-09-24T20:16:21.628Z,99614.50
2017-09-24T20:18:50.987Z,99612.67
2017-09-24T20:21:20.415Z,99614.16
2017-09-24T20:23:50.099Z,99615.25
2017-09-24T20:26:19.346Z,99616.55
2017-09-24T20:28:48.595Z,99621.24
2017-09-24T20:31:18.435Z,99613.56
2017-09-24T20:33:47.743Z,99621.46
2017-09-24T20:36:17.254Z,99610.84
2017-09-24T20:38:46.935Z,99608.86
2017-09-24T20:41:16.088Z,99611.67
2017-09-24T20:43:45.343Z,99613.41
2017-09-24T20:46:15.127Z,99614.48
2017-09-24T20:48:44.892Z,99608.46
2017-09-24T20:51:14.118Z,99608.11
2017-09-24T20:53:43.998Z,99609.99
2017-09-24T20:56:13.550Z,99609.16
2017-09-24T20:58:42.825Z,99610.73
2017-09-24T21:01:12.263Z,99610.16
2017-09-24T21:03:41.610Z,99610.56
2017-09-24T21:06:10.924Z,99610.69
2017-09-24T21:08:40.615Z,99608.57
2017-09-24T21:11:09.774Z,99604.75
2017-09-24T21:13:38.930Z,99606.93
2017-09-24T21:16:08.530Z,99604.41
2017-09-24T21:18:38.019Z,99603.66
2017-09-24T21:21:07.391Z,99605.77
2017-09-24T21:23:37.167Z,99597.43
2017-09-24T21:26:06.399Z,99592.50
2017-09-24T21:28:35.611Z,99591.23
2017-09-24T21:31:05.064Z,99583.38
2017-09-24T21:33:34.478Z,99582.36
2017-09-24T21:36:04.911Z,99588.04
2017-09-24T21:38:34.766Z,99592.00
2017-09-24T21:41:04.355Z,99585.57
2017-09-24T21:43:33.853Z,99594.70
2017-09-24T21:46:03.834Z,99587.72
2017-09-24T21:48:33.228Z,99585.86
2017-09-24T21:51:02.606Z,99591.80
2017-09-24T21:53:34.328Z,99585.46
2017-09-24T21:56:04.094Z,99587.19
2017-09-24T21:58:33.809Z,99587.05
2017-09-24T22:01:03.584Z,99588.67
2017-09-24T22:03:33.183Z,99587.34
2017-09-24T22:06:02.809Z,99590.70
2017-09-24T22:08:32.346Z,99591.39
2017-09-24T22:11:02.199Z,99585.14
2017-09-24T22:13:31.787Z,99594.56
2017-09-24T22:16:01.290Z,99596.50
2017-09-24T22:18:30.495Z,99593.47
2017-09-24T22:20:59.750Z,99593.25
2017-09-24T22:23:29.238Z,99599.60
2017-09-24T22:25:58.874Z,99592.77
2017-09-24T22:28:29.050Z,99596.72
2017-09-24T22:30:59.360Z,99593.47
2017-09-24T22:33:28.774Z,99596.04
2017-09-24T22:35:58.039Z,99591.16
2017-09-24T22:38:28.230Z,99590.98
2017-09-24T22:40:58.033Z,99585.34
2017-09-24T22:43:27.457Z,99592.28
2017-09-24T22:45:57.578Z,99589.52
2017-09-24T22:48:27.242Z,99587.69
2017-09-24T22:50:56.605Z,99585.80
2017-09-24T22:53:26.421Z,99585.72
2017-09-24T22:55:56.143Z,99580.56
2017-09-24T22:58:25.588Z,99579.67
2017-09-24T23:00:55.500Z,99581.23
2017-09-24T23:03:25.179Z,99580.47
2017-09-24T23:05:54.523Z,99575.08
2017-09-24T23:08:24.358Z,99570.60
2017-09-24T23:10:58.392Z,99568.84
2017-09-24T23:13:27.874Z,99564.77
2017-09-24T23:15:57.641Z,99561.89
2017-09-24T23:18:27.335Z,99554.11
2017-09-24T23:20:57.011Z,99559.50
2017-09-24T23:23:26.595Z,99552.63
2017-09-24T23:25:56.023Z,99555.73
2017-09-24T23:28:25.511Z,99548.07
2017-09-24T23:30:55.314Z,99550.78
2017-09-24T23:33:24.849Z,99547.01
2017-09-24T23:35:54.499Z,99550.31
2017-09-24T23:38:24.733Z,99546.24
2017-09-24T23:40:54.243Z,99547.92
2017-09-24T23:43:23.914Z,99548.77
2017-09-24T23:45:53.601Z,99548.77
2017-09-24T23:48:23.942Z,99542.45
2017-09-24T23:50:53.427Z,99548.56
2017-09-24T23:53:22.818Z,99547.67
2017-09-24T23:55:52.698Z,99553.91
2017-09-24T23:58:22.297Z,99545.35
